sensor_id;sensor_type;location;lat;lon;timestamp;pressure;altitude;pressure_sealevel;temperature;humidity
51849;BME280;38952;51.090;-1.832;2023-02-08T01:45:30;102418.41;;;-1.51;75.82
51849;BME280;38952;51.090;-1.832;2023-02-08T01:48:28;102420.38;;;-1.53;75.92
51849;BME280;38952;51.090;-1.832;2023-02-08T01:51:04;102414.16;;;-1.54;77.31
51849;BME280;38952;51.090;-1.832;2023-02-08T01:53:33;102408.50;;;-1.61;76.58
51849;BME280;38952;51.090;-1.832;2023-02-08T01:56:03;102403.94;;;-1.70;76.43
51849;BME280;38952;51.090;-1.832;2023-02-08T01:58:32;102385.72;;;-1.76;77.33
51849;BME280;38952;51.090;-1.832;2023-02-08T02:00:59;102394.91;;;-1.69;77.41
51849;BME280;38952;51.090;-1.832;2023-02-08T02:03:28;102397.59;;;-1.69;77.42
51849;BME280;38952;51.090;-1.832;2023-02-08T02:06:11;102397.88;;;-1.72;77.34
51849;BME280;38952;51.090;-1.832;2023-02-08T02:09:04;102410.75;;;-1.66;76.96
51849;BME280;38952;51.090;-1.832;2023-02-08T02:11:37;102350.50;;;-2.02;76.66
51849;BME280;38952;51.090;-1.832;2023-02-08T02:14:03;102373.13;;;-1.85;77.21
51849;BME280;38952;51.090;-1.832;2023-02-08T02:16:37;102375.97;;;-1.87;77.09
51849;BME280;38952;51.090;-1.832;2023-02-08T02:19:06;102383.59;;;-1.82;77.66
51849;BME280;38952;51.090;-1.832;2023-02-08T02:21:56;102394.75;;;-1.77;77.92
51849;BME280;38952;51.090;-1.832;2023-02-08T02:25:00;102388.97;;;-1.82;77.22
51849;BME280;38952;51.090;-1.832;2023-02-08T02:52:39;102341.34;;;-2.31;78.70
51849;BME280;38952;51.090;-1.832;2023-02-08T02:55:15;102328.56;;;-2.48;79.21
51849;BME280;38952;51.090;-1.832;2023-02-08T02:57:43;102357.69;;;-2.34;79.43
51849;BME280;38952;51.090;-1.832;2023-02-08T03:00:11;102323.72;;;-2.54;78.85
51849;BME280;38952;51.090;-1.832;2023-02-08T03:02:40;102342.22;;;-2.51;78.84
51849;BME280;38952;51.090;-1.832;2023-02-08T03:05:10;102366.38;;;-2.41;79.07
51849;BME280;38952;51.090;-1.832;2023-02-08T03:07:47;102348.31;;;-2.49;79.73
51849;BME280;38952;51.090;-1.832;2023-02-08T03:10:40;102353.66;;;-2.49;79.62
51849;BME280;38952;51.090;-1.832;2023-02-08T03:13:31;102346.59;;;-2.50;79.80
51849;BME280;38952;51.090;-1.832;2023-02-08T03:16:23;102344.13;;;-2.42;79.80
51849;BME280;38952;51.090;-1.832;2023-02-08T03:24:37;102348.31;;;-2.49;79.79
51849;BME280;38952;51.090;-1.832;2023-02-08T03:27:27;102332.22;;;-2.49;79.96
51849;BME280;38952;51.090;-1.832;2023-02-08T03:30:19;102329.81;;;-2.52;79.72
51849;BME280;38952;51.090;-1.832;2023-02-08T03:33:00;102312.13;;;-2.65;79.91
51849;BME280;38952;51.090;-1.832;2023-02-08T03:35:39;102311.84;;;-2.61;79.04
51849;BME280;38952;51.090;-1.832;2023-02-08T03:38:17;102318.38;;;-2.54;79.37
51849;BME280;38952;51.090;-1.832;2023-02-08T03:40:51;102315.56;;;-2.53;79.34
51849;BME280;38952;51.090;-1.832;2023-02-08T03:43:23;102315.63;;;-2.43;79.44
51849;BME280;38952;51.090;-1.832;2023-02-08T03:45:56;102335.19;;;-2.21;78.94
51849;BME280;38952;51.090;-1.832;2023-02-08T03:48:24;102317.13;;;-2.19;79.04
51849;BME280;38952;51.090;-1.832;2023-02-08T03:50:54;102321.97;;;-2.13;78.81
51849;BME280;38952;51.090;-1.832;2023-02-08T03:53:22;102308.97;;;-2.08;78.93
51849;BME280;38952;51.090;-1.832;2023-02-08T03:55:56;102297.97;;;-2.05;78.18
51849;BME280;38952;51.090;-1.832;2023-02-08T03:58:31;102301.94;;;-1.99;79.27
51849;BME280;38952;51.090;-1.832;2023-02-08T04:01:08;102298.84;;;-1.95;78.87
51849;BME280;38952;51.090;-1.832;2023-02-08T04:03:48;102286.97;;;-2.12;78.88
51849;BME280;38952;51.090;-1.832;2023-02-08T04:06:23;102252.88;;;-2.40;79.66
51849;BME280;38952;51.090;-1.832;2023-02-08T04:09:21;102308.16;;;-2.08;79.80
51849;BME280;38952;51.090;-1.832;2023-02-08T04:11:46;102271.81;;;-2.32;79.17
51849;BME280;38952;51.090;-1.832;2023-02-08T04:14:19;102260.97;;;-2.31;79.78
51849;BME280;38952;51.090;-1.832;2023-02-08T04:16:45;102260.97;;;-2.31;80.06
51849;BME280;38952;51.090;-1.832;2023-02-08T04:19:10;102302.03;;;-2.11;79.64
51849;BME280;38952;51.090;-1.832;2023-02-08T04:21:39;102290.03;;;-2.16;80.02
51849;BME280;38952;51.090;-1.832;2023-02-08T04:24:05;102305.88;;;-2.03;80.09
51849;BME280;38952;51.090;-1.832;2023-02-08T04:26:34;102317.75;;;-1.96;80.67
51849;BME280;38952;51.090;-1.832;2023-02-08T04:29:02;102301.13;;;-2.00;79.80
51849;BME280;38952;51.090;-1.832;2023-02-08T04:31:48;102283.88;;;-1.97;79.56
51849;BME280;38952;51.090;-1.832;2023-02-08T04:34:13;102294.78;;;-1.89;79.45
51849;BME280;38952;51.090;-1.832;2023-02-08T04:36:39;102309.34;;;-1.72;79.18
51849;BME280;38952;51.090;-1.832;2023-02-08T04:39:07;102293.81;;;-1.78;80.15
51849;BME280;38952;51.090;-1.832;2023-02-08T04:41:35;102283.34;;;-1.81;79.59
51849;BME280;38952;51.090;-1.832;2023-02-08T04:44:01;102317.84;;;-1.57;79.15
51849;BME280;38952;51.090;-1.832;2023-02-08T04:46:26;102313.59;;;-1.60;79.44
51849;BME280;38952;51.090;-1.832;2023-02-08T04:48:54;102324.50;;;-1.51;79.10
51849;BME280;38952;51.090;-1.832;2023-02-08T04:51:20;102300.47;;;-1.63;79.23
51849;BME280;38952;51.090;-1.832;2023-02-08T04:53:45;102295.53;;;-1.67;79.62
51849;BME280;38952;51.090;-1.832;2023-02-08T04:56:11;102277.44;;;-1.75;79.54
51849;BME280;38952;51.090;-1.832;2023-02-08T04:58:39;102278.56;;;-1.78;80.18
51849;BME280;38952;51.090;-1.832;2023-02-08T05:01:15;102297.78;;;-1.63;79.87
51849;BME280;38952;51.090;-1.832;2023-02-08T05:03:41;102280.25;;;-1.67;80.30
51849;BME280;38952;51.090;-1.832;2023-02-08T05:06:17;102276.59;;;-1.66;79.64
51849;BME280;38952;51.090;-1.832;2023-02-08T05:08:44;102285.78;;;-1.59;80.77
51849;BME280;38952;51.090;-1.832;2023-02-08T05:11:10;102270.53;;;-1.68;80.87
51849;BME280;38952;51.090;-1.832;2023-02-08T05:13:51;102260.22;;;-1.82;80.46
51849;BME280;38952;51.090;-1.832;2023-02-08T05:16:17;102263.59;;;-1.80;80.85
51849;BME280;38952;51.090;-1.832;2023-02-08T05:18:43;102296.22;;;-1.65;80.61
51849;BME280;38952;51.090;-1.832;2023-02-08T05:21:11;102292.16;;;-1.69;80.67
51849;BME280;38952;51.090;-1.832;2023-02-08T05:23:37;102265.56;;;-1.82;81.49
51849;BME280;38952;51.090;-1.832;2023-02-08T05:26:07;102267.84;;;-1.78;81.13
51849;BME280;38952;51.090;-1.832;2023-02-08T05:28:33;102264.72;;;-1.83;81.05
51849;BME280;38952;51.090;-1.832;2023-02-08T05:34:02;102244.81;;;-1.80;81.08
51849;BME280;38952;51.090;-1.832;2023-02-08T05:36:28;102275.63;;;-1.65;80.85
51849;BME280;38952;51.090;-1.832;2023-02-08T05:38:56;102253.44;;;-1.86;81.96
51849;BME280;38952;51.090;-1.832;2023-02-08T05:41:31;102261.19;;;-1.83;81.62
51849;BME280;38952;51.090;-1.832;2023-02-08T05:43:57;102270.09;;;-1.73;81.29
51849;BME280;38952;51.090;-1.832;2023-02-08T05:46:22;102266.44;;;-1.72;81.10
51849;BME280;38952;51.090;-1.832;2023-02-08T05:48:48;102286.63;;;-1.68;81.85
51849;BME280;38952;51.090;-1.832;2023-02-08T05:51:13;102265.56;;;-1.82;82.08
51849;BME280;38952;51.090;-1.832;2023-02-08T05:53:41;102264.56;;;-1.81;80.93
51849;BME280;38952;51.090;-1.832;2023-02-08T05:56:14;102272.09;;;-1.75;81.68
51849;BME280;38952;51.090;-1.832;2023-02-08T05:58:39;102274.63;;;-1.73;81.58
51849;BME280;38952;51.090;-1.832;2023-02-08T06:01:12;102283.38;;;-1.71;82.10
51849;BME280;38952;51.090;-1.832;2023-02-08T06:03:38;102257.09;;;-1.87;82.18
51849;BME280;38952;51.090;-1.832;2023-02-08T06:06:05;102263.72;;;-1.82;81.48
51849;BME280;38952;51.090;-1.832;2023-02-08T06:08:31;102256.94;;;-1.86;81.42
51849;BME280;38952;51.090;-1.832;2023-02-08T06:10:56;102260.50;;;-1.85;81.65
51849;BME280;38952;51.090;-1.832;2023-02-08T06:13:22;102286.47;;;-1.76;81.94
51849;BME280;38952;51.090;-1.832;2023-02-08T06:15:48;102272.03;;;-1.95;81.93
51849;BME280;38952;51.090;-1.832;2023-02-08T06:18:20;102291.25;;;-1.89;81.52
51849;BME280;38952;51.090;-1.832;2023-02-08T06:20:46;102290.53;;;-1.91;81.84
51849;BME280;38952;51.090;-1.832;2023-02-08T06:23:12;102266.34;;;-2.11;82.07
51849;BME280;38952;51.090;-1.832;2023-02-08T06:25:39;102279.63;;;-2.09;82.83
51849;BME280;38952;51.090;-1.832;2023-02-08T06:28:05;102282.72;;;-2.14;81.98
51849;BME280;38952;51.090;-1.832;2023-02-08T06:30:32;102273.53;;;-2.21;82.36
51849;BME280;38952;51.090;-1.832;2023-02-08T06:32:58;102274.78;;;-2.25;82.32
51849;BME280;38952;51.090;-1.832;2023-02-08T06:35:23;102269.13;;;-2.32;82.70
51849;BME280;38952;51.090;-1.832;2023-02-08T06:37:56;102304.44;;;-2.17;82.39
51849;BME280;38952;51.090;-1.832;2023-02-08T06:40:23;102297.66;;;-2.21;82.89
51849;BME280;38952;51.090;-1.832;2023-02-08T06:42:49;102278.38;;;-2.46;82.55
51849;BME280;38952;51.090;-1.832;2023-02-08T06:45:15;102281.72;;;-2.54;82.35
51849;BME280;38952;51.090;-1.832;2023-02-08T06:47:40;102289.91;;;-2.55;82.43
51849;BME280;38952;51.090;-1.832;2023-02-08T06:50:06;102280.50;;;-2.71;82.52
51849;BME280;38952;51.090;-1.832;2023-02-08T06:52:34;102300.69;;;-2.67;82.68
51849;BME280;38952;51.090;-1.832;2023-02-08T06:55:03;102268.84;;;-2.91;83.07
51849;BME280;38952;51.090;-1.832;2023-02-08T06:57:49;102256.91;;;-3.08;82.93
51849;BME280;38952;51.090;-1.832;2023-02-08T07:00:17;102289.34;;;-3.01;83.22
51849;BME280;38952;51.090;-1.832;2023-02-08T07:02:45;102268.25;;;-3.16;83.12
51849;BME280;38952;51.090;-1.832;2023-02-08T07:05:19;102280.28;;;-3.10;82.42
51849;BME280;38952;51.090;-1.832;2023-02-08T07:07:58;102250.84;;;-3.31;82.48
51849;BME280;38952;51.090;-1.832;2023-02-08T07:10:23;102270.63;;;-3.22;82.62
51849;BME280;38952;51.090;-1.832;2023-02-08T07:12:52;102262.38;;;-3.30;82.67
51849;BME280;38952;51.090;-1.832;2023-02-08T07:15:24;102264.34;;;-3.33;82.88
51849;BME280;38952;51.090;-1.832;2023-02-08T07:17:59;102270.81;;;-3.35;82.49
51849;BME280;38952;51.090;-1.832;2023-02-08T07:20:25;102265.97;;;-3.41;82.79
51849;BME280;38952;51.090;-1.832;2023-02-08T07:22:58;102266.56;;;-3.38;82.95
51849;BME280;38952;51.090;-1.832;2023-02-08T07:25:34;102263.44;;;-3.43;82.79
51849;BME280;38952;51.090;-1.832;2023-02-08T07:27:59;102246.94;;;-3.59;82.63
51849;BME280;38952;51.090;-1.832;2023-02-08T07:30:27;102264.19;;;-3.52;82.90
51849;BME280;38952;51.090;-1.832;2023-02-08T07:33:07;102273.19;;;-3.53;82.97
51849;BME280;38952;51.090;-1.832;2023-02-08T07:35:37;102286.63;;;-3.43;82.77
51849;BME280;38952;51.090;-1.832;2023-02-08T07:38:06;102280.22;;;-3.52;82.96
51849;BME280;38952;51.090;-1.832;2023-02-08T07:40:34;102286.75;;;-3.45;82.62
51849;BME280;38952;51.090;-1.832;2023-02-08T07:43:02;102277.19;;;-3.47;82.22
51849;BME280;38952;51.090;-1.832;2023-02-08T07:45:28;102274.75;;;-3.51;82.74
51849;BME280;38952;51.090;-1.832;2023-02-08T07:48:07;102280.22;;;-3.52;82.34
51849;BME280;38952;51.090;-1.832;2023-02-08T07:50:34;102279.75;;;-3.46;82.41
51849;BME280;38952;51.090;-1.832;2023-02-08T07:56:48;102259.88;;;-3.43;82.46
51849;BME280;38952;51.090;-1.832;2023-02-08T07:59:37;102255.41;;;-3.43;82.51
51849;BME280;38952;51.090;-1.832;2023-02-08T08:02:05;102252.47;;;-3.40;82.22
51849;BME280;38952;51.090;-1.832;2023-02-08T08:04:43;102285.63;;;-3.10;81.68
51849;BME280;38952;51.090;-1.832;2023-02-08T08:07:28;102278.06;;;-3.05;82.00
51849;BME280;38952;51.090;-1.832;2023-02-08T08:09:54;102291.63;;;-2.96;81.60
51849;BME280;38952;51.090;-1.832;2023-02-08T08:12:20;102254.75;;;-3.14;81.82
51849;BME280;38952;51.090;-1.832;2023-02-08T08:14:56;102271.50;;;-2.91;81.22
51849;BME280;38952;51.090;-1.832;2023-02-08T08:17:32;102276.94;;;-2.81;80.97
51849;BME280;38952;51.090;-1.832;2023-02-08T08:20:16;102297.25;;;-2.48;81.06
51849;BME280;38952;51.090;-1.832;2023-02-08T08:23:12;102254.81;;;-2.52;80.54
51849;BME280;38952;51.090;-1.832;2023-02-08T08:25:41;102274.22;;;-2.19;79.42
51849;BME280;38952;51.090;-1.832;2023-02-08T08:31:00;102253.38;;;-2.06;78.30
51849;BME280;38952;51.090;-1.832;2023-02-08T08:33:28;102267.69;;;-1.96;78.43
51849;BME280;38952;51.090;-1.832;2023-02-08T08:35:54;102254.41;;;-1.87;78.63
51849;BME280;38952;51.090;-1.832;2023-02-08T08:38:20;102277.28;;;-1.64;78.02
51849;BME280;38952;51.090;-1.832;2023-02-08T08:41:13;102281.13;;;-1.47;77.02
51849;BME280;38952;51.090;-1.832;2023-02-08T08:43:42;102285.09;;;-1.31;77.71
51849;BME280;38952;51.090;-1.832;2023-02-08T09:03:22;102284.13;;;11.15;47.57
51849;BME280;38952;51.090;-1.832;2023-02-08T09:05:49;102292.16;;;12.58;44.19
51849;BME280;38952;51.090;-1.832;2023-02-08T09:08:41;102278.31;;;14.07;41.50
51849;BME280;38952;51.090;-1.832;2023-02-08T09:11:27;102280.03;;;15.39;39.05
51849;BME280;38952;51.090;-1.832;2023-02-08T09:14:11;102295.75;;;16.76;37.20
51849;BME280;38952;51.090;-1.832;2023-02-08T09:16:41;102264.59;;;17.56;35.83
51849;BME280;38952;51.090;-1.832;2023-02-08T09:19:20;102291.25;;;18.61;34.72
51849;BME280;38952;51.090;-1.832;2023-02-08T09:22:39;102267.97;;;19.29;33.72
51849;BME280;38952;51.090;-1.832;2023-02-08T09:25:09;102294.47;;;19.87;32.75
51849;BME280;38952;51.090;-1.832;2023-02-08T09:27:45;102279.63;;;20.57;31.72
51849;BME280;38952;51.090;-1.832;2023-02-08T09:30:11;102269.56;;;21.30;31.44
51849;BME280;38952;51.090;-1.832;2023-02-08T09:32:51;102275.94;;;22.03;30.46
51849;BME280;38952;51.090;-1.832;2023-02-08T09:35:24;102276.53;;;22.62;30.53
51849;BME280;38952;51.090;-1.832;2023-02-08T09:37:52;102258.66;;;23.29;29.30
51849;BME280;38952;51.090;-1.832;2023-02-08T09:40:56;102275.06;;;24.14;28.25
51849;BME280;38952;51.090;-1.832;2023-02-08T09:46:21;102261.47;;;25.03;26.30
51849;BME280;38952;51.090;-1.832;2023-02-08T09:49:01;102274.06;;;25.55;25.90
51849;BME280;38952;51.090;-1.832;2023-02-08T09:51:34;102285.56;;;25.85;24.59
51849;BME280;38952;51.090;-1.832;2023-02-08T09:54:06;102280.69;;;26.25;24.44
51849;BME280;38952;51.090;-1.832;2023-02-08T09:56:43;102275.72;;;26.83;23.89
51849;BME280;38952;51.090;-1.832;2023-02-08T09:59:19;102268.13;;;27.49;23.44
51849;BME280;38952;51.090;-1.832;2023-02-08T10:01:50;102274.00;;;28.37;22.47
51849;BME280;38952;51.090;-1.832;2023-02-08T10:07:14;102266.03;;;29.76;21.49
51849;BME280;38952;51.090;-1.832;2023-02-08T10:09:41;102278.66;;;30.20;21.03
51849;BME280;38952;51.090;-1.832;2023-02-08T10:14:56;102269.75;;;31.03;19.97
51849;BME280;38952;51.090;-1.832;2023-02-08T10:20:51;102271.19;;;31.92;18.82
51849;BME280;38952;51.090;-1.832;2023-02-08T10:26:12;102262.50;;;32.79;18.00
51849;BME280;38952;51.090;-1.832;2023-02-08T10:31:37;102275.78;;;33.95;17.07
51849;BME280;38952;51.090;-1.832;2023-02-08T10:37:20;102263.59;;;35.34;15.90
51849;BME280;38952;51.090;-1.832;2023-02-08T10:39:50;102257.78;;;35.71;15.64
51849;BME280;38952;51.090;-1.832;2023-02-08T10:42:36;102253.47;;;35.95;15.08
51849;BME280;38952;51.090;-1.832;2023-02-08T10:45:24;102262.66;;;36.48;14.80
51849;BME280;38952;51.090;-1.832;2023-02-08T10:47:54;102249.75;;;36.90;14.73
51849;BME280;38952;51.090;-1.832;2023-02-08T10:50:31;102253.00;;;37.21;14.63
51849;BME280;38952;51.090;-1.832;2023-02-08T10:52:58;102258.69;;;37.61;14.67
51849;BME280;38952;51.090;-1.832;2023-02-08T10:55:24;102248.88;;;37.87;14.33
51849;BME280;38952;51.090;-1.832;2023-02-08T10:57:51;102252.91;;;38.00;14.53
51849;BME280;38952;51.090;-1.832;2023-02-08T11:00:51;102255.50;;;38.54;14.24
51849;BME280;38952;51.090;-1.832;2023-02-08T11:05:48;102225.09;;;38.86;13.70
51849;BME280;38952;51.090;-1.832;2023-02-08T11:08:21;102247.75;;;39.60;13.31
51849;BME280;38952;51.090;-1.832;2023-02-08T11:13:34;102256.75;;;40.31;12.87
51849;BME280;38952;51.090;-1.832;2023-02-08T11:16:01;102235.25;;;40.46;12.76
51849;BME280;38952;51.090;-1.832;2023-02-08T11:18:47;102222.69;;;40.64;11.79
51849;BME280;38952;51.090;-1.832;2023-02-08T11:21:36;102227.16;;;40.69;11.74
51849;BME280;38952;51.090;-1.832;2023-02-08T11:26:54;102224.34;;;40.89;10.76
51849;BME280;38952;51.090;-1.832;2023-02-08T11:29:30;102208.69;;;40.97;11.05
51849;BME280;38952;51.090;-1.832;2023-02-08T11:32:16;102229.72;;;41.38;10.82
51849;BME280;38952;51.090;-1.832;2023-02-08T11:34:42;102221.84;;;41.62;10.74
51849;BME280;38952;51.090;-1.832;2023-02-08T11:37:14;102219.84;;;41.82;10.37
51849;BME280;38952;51.090;-1.832;2023-02-08T11:39:48;102221.56;;;41.76;10.59
51849;BME280;38952;51.090;-1.832;2023-02-08T11:42:45;102222.84;;;41.75;10.83
51849;BME280;38952;51.090;-1.832;2023-02-08T11:45:37;102233.59;;;41.91;10.18
51849;BME280;38952;51.090;-1.832;2023-02-08T11:48:38;102218.38;;;42.31;9.95
51849;BME280;38952;51.090;-1.832;2023-02-08T11:51:02;102209.13;;;42.03;9.98
51849;BME280;38952;51.090;-1.832;2023-02-08T11:58:36;102192.38;;;43.04;10.29
51849;BME280;38952;51.090;-1.832;2023-02-08T12:01:05;102194.69;;;43.09;10.05
51849;BME280;38952;51.090;-1.832;2023-02-08T12:03:41;102195.53;;;43.39;9.78
51849;BME280;38952;51.090;-1.832;2023-02-08T12:09:42;102169.56;;;43.85;9.52
51849;BME280;38952;51.090;-1.832;2023-02-08T12:12:22;102163.53;;;42.75;9.43
51849;BME280;38952;51.090;-1.832;2023-02-08T12:14:52;102157.50;;;41.99;9.86
51849;BME280;38952;51.090;-1.832;2023-02-08T12:23:23;102142.09;;;39.76;11.27
51849;BME280;38952;51.090;-1.832;2023-02-08T12:29:23;102114.94;;;38.14;11.10
51849;BME280;38952;51.090;-1.832;2023-02-08T12:34:52;102131.63;;;36.41;12.50
51849;BME280;38952;51.090;-1.832;2023-02-08T12:40:17;102113.16;;;37.64;12.02
51849;BME280;38952;51.090;-1.832;2023-02-08T12:48:36;102097.47;;;36.55;12.52
51849;BME280;38952;51.090;-1.832;2023-02-08T12:53:54;102081.56;;;36.86;12.29
51849;BME280;38952;51.090;-1.832;2023-02-08T12:56:42;102073.00;;;36.97;11.95
51849;BME280;38952;51.090;-1.832;2023-02-08T13:54:09;101941.63;;;30.45;16.11
51849;BME280;38952;51.090;-1.832;2023-02-08T13:56:50;101959.66;;;30.76;15.97
51849;BME280;38952;51.090;-1.832;2023-02-08T13:59:33;101960.88;;;31.93;15.20
51849;BME280;38952;51.090;-1.832;2023-02-08T14:02:18;101952.53;;;31.38;15.17
51849;BME280;38952;51.090;-1.832;2023-02-08T14:04:51;101934.19;;;31.51;14.99
51849;BME280;38952;51.090;-1.832;2023-02-08T14:07:37;101941.81;;;30.72;14.86
51849;BME280;38952;51.090;-1.832;2023-02-08T14:12:54;101928.50;;;29.45;16.37
51849;BME280;38952;51.090;-1.832;2023-02-08T14:17:50;101908.13;;;28.95;16.49
51849;BME280;38952;51.090;-1.832;2023-02-08T14:21:04;101917.19;;;27.90;17.25
51849;BME280;38952;51.090;-1.832;2023-02-08T14:23:25;101913.78;;;27.84;17.69
51849;BME280;38952;51.090;-1.832;2023-02-08T14:26:06;101913.41;;;28.07;17.75
51849;BME280;38952;51.090;-1.832;2023-02-08T14:28:38;101913.78;;;27.96;16.74
51849;BME280;38952;51.090;-1.832;2023-02-08T14:31:11;101882.28;;;27.32;16.66
51849;BME280;38952;51.090;-1.832;2023-02-08T14:34:21;101903.44;;;26.37;17.61
51849;BME280;38952;51.090;-1.832;2023-02-08T14:37:01;101901.28;;;26.93;17.99
51849;BME280;38952;51.090;-1.832;2023-02-08T14:39:32;101901.53;;;27.43;16.40
51849;BME280;38952;51.090;-1.832;2023-02-08T14:42:05;101886.19;;;27.19;16.63
51849;BME280;38952;51.090;-1.832;2023-02-08T14:50:16;101884.06;;;27.16;17.57
51849;BME280;38952;51.090;-1.832;2023-02-08T14:52:57;101887.78;;;27.75;16.50
51849;BME280;38952;51.090;-1.832;2023-02-08T14:55:28;101877.53;;;27.45;16.03
51849;BME280;38952;51.090;-1.832;2023-02-08T14:57:59;101863.09;;;27.34;17.16
51849;BME280;38952;51.090;-1.832;2023-02-08T15:03:30;101885.69;;;27.96;16.82
51849;BME280;38952;51.090;-1.832;2023-02-08T15:06:12;101881.00;;;27.88;16.94
51849;BME280;38952;51.090;-1.832;2023-02-08T15:08:50;101882.41;;;27.36;17.00
51849;BME280;38952;51.090;-1.832;2023-02-08T15:11:42;101875.69;;;27.28;15.25
51849;BME280;38952;51.090;-1.832;2023-02-08T15:14:23;101847.31;;;27.09;15.58
51849;BME280;38952;51.090;-1.832;2023-02-08T15:16:48;101853.38;;;26.98;15.13
51849;BME280;38952;51.090;-1.832;2023-02-08T15:19:29;101865.69;;;26.04;15.84
51849;BME280;38952;51.090;-1.832;2023-02-08T15:24:54;101859.56;;;25.64;16.34
51849;BME280;38952;51.090;-1.832;2023-02-08T15:27:33;101862.28;;;25.34;16.94
51849;BME280;38952;51.090;-1.832;2023-02-08T15:32:58;101852.09;;;25.03;16.63
51849;BME280;38952;51.090;-1.832;2023-02-08T15:35:30;101825.94;;;24.06;17.67
51849;BME280;38952;51.090;-1.832;2023-02-08T15:38:00;101869.28;;;23.32;18.39
51849;BME280;38952;51.090;-1.832;2023-02-08T15:40:31;101839.19;;;22.33;18.78
51849;BME280;38952;51.090;-1.832;2023-02-08T15:43:20;101850.63;;;22.31;19.67
51849;BME280;38952;51.090;-1.832;2023-02-08T15:45:55;101825.97;;;21.97;19.76
51849;BME280;38952;51.090;-1.832;2023-02-08T15:48:21;101843.09;;;21.63;20.29
51849;BME280;38952;51.090;-1.832;2023-02-08T15:50:51;101846.09;;;21.80;20.80
51849;BME280;38952;51.090;-1.832;2023-02-08T15:53:18;101823.97;;;21.23;21.42
51849;BME280;38952;51.090;-1.832;2023-02-08T15:56:04;101811.91;;;21.14;20.98
51849;BME280;38952;51.090;-1.832;2023-02-08T15:59:15;101811.13;;;20.94;21.97
51849;BME280;38952;51.090;-1.832;2023-02-08T16:01:48;101811.94;;;20.56;22.33
51849;BME280;38952;51.090;-1.832;2023-02-08T16:04:14;101843.59;;;20.80;22.39
51849;BME280;38952;51.090;-1.832;2023-02-08T16:06:54;101825.91;;;19.30;23.32
51849;BME280;38952;51.090;-1.832;2023-02-08T16:09:26;101832.25;;;16.83;25.17
51849;BME280;38952;51.090;-1.832;2023-02-08T16:11:57;101816.19;;;14.78;28.97
51849;BME280;38952;51.090;-1.832;2023-02-08T16:14:24;101840.75;;;13.35;31.55
51849;BME280;38952;51.090;-1.832;2023-02-08T16:16:54;101822.56;;;12.14;34.53
51849;BME280;38952;51.090;-1.832;2023-02-08T16:19:28;101850.56;;;11.33;36.18
51849;BME280;38952;51.090;-1.832;2023-02-08T16:21:55;101838.59;;;10.61;38.73
51849;BME280;38952;51.090;-1.832;2023-02-08T16:24:31;101825.59;;;9.89;40.22
51849;BME280;38952;51.090;-1.832;2023-02-08T16:27:19;101840.28;;;9.51;41.94
51849;BME280;38952;51.090;-1.832;2023-02-08T16:29:56;101791.41;;;8.67;41.11
51849;BME280;38952;51.090;-1.832;2023-02-08T16:32:32;101808.31;;;8.44;42.39
51849;BME280;38952;51.090;-1.832;2023-02-08T16:37:51;101832.41;;;7.89;48.25
51849;BME280;38952;51.090;-1.832;2023-02-08T16:40:42;101837.25;;;7.60;48.19
51849;BME280;38952;51.090;-1.832;2023-02-08T16:43:24;101858.41;;;7.44;48.66
51849;BME280;38952;51.090;-1.832;2023-02-08T16:48:55;101820.50;;;6.76;50.76
51849;BME280;38952;51.090;-1.832;2023-02-08T16:51:26;101859.41;;;6.76;51.51
51849;BME280;38952;51.090;-1.832;2023-02-08T16:54:31;101839.41;;;6.42;53.75
51849;BME280;38952;51.090;-1.832;2023-02-08T16:57:46;101815.22;;;5.99;54.03
51849;BME280;38952;51.090;-1.832;2023-02-08T17:00:18;101840.28;;;6.01;55.26
51849;BME280;38952;51.090;-1.832;2023-02-08T17:02:44;101833.25;;;5.79;57.28
51849;BME280;38952;51.090;-1.832;2023-02-08T17:05:10;101841.06;;;5.60;58.10
51849;BME280;38952;51.090;-1.832;2023-02-08T17:07:44;101840.16;;;5.46;58.69
51849;BME280;38952;51.090;-1.832;2023-02-08T17:10:21;101843.31;;;5.28;58.92
51849;BME280;38952;51.090;-1.832;2023-02-08T17:12:47;101838.19;;;5.12;59.21
51849;BME280;38952;51.090;-1.832;2023-02-08T17:15:13;101851.03;;;5.03;59.01
51849;BME280;38952;51.090;-1.832;2023-02-08T17:17:52;101830.56;;;4.79;59.10
51849;BME280;38952;51.090;-1.832;2023-02-08T17:20:26;101847.41;;;4.74;59.73
51849;BME280;38952;51.090;-1.832;2023-02-08T17:22:53;101867.88;;;4.77;60.82
51849;BME280;38952;51.090;-1.832;2023-02-08T17:25:22;101838.81;;;4.49;61.68
51849;BME280;38952;51.090;-1.832;2023-02-08T17:28:27;101824.06;;;4.36;63.14
51849;BME280;38952;51.090;-1.832;2023-02-08T17:31:02;101863.81;;;4.51;64.97
51849;BME280;38952;51.090;-1.832;2023-02-08T17:33:31;101872.47;;;4.40;65.98
51849;BME280;38952;51.090;-1.832;2023-02-08T17:36:01;101852.97;;;4.29;66.01
51849;BME280;38952;51.090;-1.832;2023-02-08T17:38:26;101863.50;;;4.24;65.08
51849;BME280;38952;51.090;-1.832;2023-02-08T17:40:58;101847.47;;;4.08;67.35
51849;BME280;38952;51.090;-1.832;2023-02-08T17:43:28;101841.88;;;3.94;67.32
51849;BME280;38952;51.090;-1.832;2023-02-08T17:45:54;101843.84;;;3.86;68.47
51849;BME280;38952;51.090;-1.832;2023-02-08T17:48:20;101843.75;;;3.79;68.21
51849;BME280;38952;51.090;-1.832;2023-02-08T17:51:16;101839.91;;;3.73;67.27
51849;BME280;38952;51.090;-1.832;2023-02-08T17:53:48;101835.44;;;3.65;67.11
51849;BME280;38952;51.090;-1.832;2023-02-08T17:56:57;101849.22;;;3.71;67.81
51849;BME280;38952;51.090;-1.832;2023-02-08T17:59:32;101836.81;;;3.61;68.72
51849;BME280;38952;51.090;-1.832;2023-02-08T18:02:09;101849.34;;;3.62;69.10
51849;BME280;38952;51.090;-1.832;2023-02-08T18:05:05;101864.69;;;3.62;70.04
51849;BME280;38952;51.090;-1.832;2023-02-08T18:07:40;101863.31;;;3.51;69.23
51849;BME280;38952;51.090;-1.832;2023-02-08T18:10:13;101818.38;;;3.27;69.01
51849;BME280;38952;51.090;-1.832;2023-02-08T18:12:40;101847.31;;;3.41;68.16
51849;BME280;38952;51.090;-1.832;2023-02-08T18:15:43;101829.19;;;3.27;67.84
51849;BME280;38952;51.090;-1.832;2023-02-08T18:18:29;101827.06;;;3.22;68.11
51849;BME280;38952;51.090;-1.832;2023-02-08T18:21:08;101859.72;;;3.36;68.64